Terminal Aerodrome Forecast
Issued by NWS

Home | Current Version | Previous Version | Text Only | Print | Product List | Glossary On
Versions: 1 2 3 4 5 6 7 8 9 10 11 12 13 14 15 16 17 18 19 20 21 22 23 24 25 26 27 28 29 30 31 32 33 34 35 36 37
189
FTUS42 KCAE 231430 AAC
TAFOGB
TAF AMD
KOGB 231430Z 2315/2412 22006KT P6SM VCSH SCT008 OVC015
      TEMPO 2315/2318 2SM RA BR OVC005
     FM231800 24008KT 3SM SHRA VCTS OVC010CB
     FM240100 VRB05KT P6SM VCSH BKN008
     FM240600 VRB04KT 4SM BR OVC005=

USA.gov is the U.S. government's official web portal to all federal, state and local government web resources and services.